sensor_id;sensor_type;location;lat;lon;timestamp;P1;durP1;ratioP1;P2;durP2;ratioP2
7823;SDS011;3957;48.61947800;9.05303100;2024-03-29T00:00:31;1.20;;;1.10;;
7823;SDS011;3957;48.61947800;9.05303100;2024-03-29T00:01:32;2.05;;;1.23;;
7823;SDS011;3957;48.61947800;9.05303100;2024-03-29T00:02:32;1.80;;;1.13;;
7823;SDS011;3957;48.61947800;9.05303100;2024-03-29T00:03:33;1.43;;;1.20;;
7823;SDS011;3957;48.61947800;9.05303100;2024-03-29T00:04:34;1.88;;;1.40;;
7823;SDS011;3957;48.61947800;9.05303100;2024-03-29T00:05:34;3.10;;;1.20;;
7823;SDS011;3957;48.61947800;9.05303100;2024-03-29T00:06:35;2.13;;;1.00;;
7823;SDS011;3957;48.61947800;9.05303100;2024-03-29T00:07:36;1.47;;;1.33;;
7823;SDS011;3957;48.61947800;9.05303100;2024-03-29T00:08:36;1.75;;;1.40;;
7823;SDS011;3957;48.61947800;9.05303100;2024-03-29T00:09:37;3.97;;;1.45;;
7823;SDS011;3957;48.61947800;9.05303100;2024-03-29T00:10:38;1.85;;;1.40;;
7823;SDS011;3957;48.61947800;9.05303100;2024-03-29T00:11:39;2.00;;;1.53;;
7823;SDS011;3957;48.61947800;9.05303100;2024-03-29T00:12:39;1.20;;;1.10;;
7823;SDS011;3957;48.61947800;9.05303100;2024-03-29T00:13:40;1.25;;;1.15;;
7823;SDS011;3957;48.61947800;9.05303100;2024-03-29T00:14:40;2.37;;;1.60;;
7823;SDS011;3957;48.61947800;9.05303100;2024-03-29T00:15:41;2.75;;;1.67;;
7823;SDS011;3957;48.61947800;9.05303100;2024-03-29T00:16:41;1.02;;;0.93;;
7823;SDS011;3957;48.61947800;9.05303100;2024-03-29T00:17:42;1.20;;;1.10;;
7823;SDS011;3957;48.61947800;9.05303100;2024-03-29T00:18:43;1.83;;;1.40;;
7823;SDS011;3957;48.61947800;9.05303100;2024-03-29T00:19:43;1.48;;;1.25;;
7823;SDS011;3957;48.61947800;9.05303100;2024-03-29T00:20:44;1.67;;;1.00;;
7823;SDS011;3957;48.61947800;9.05303100;2024-03-29T00:21:44;3.35;;;1.35;;
7823;SDS011;3957;48.61947800;9.05303100;2024-03-29T00:22:45;1.53;;;1.13;;
7823;SDS011;3957;48.61947800;9.05303100;2024-03-29T00:23:45;2.00;;;1.23;;
7823;SDS011;3957;48.61947800;9.05303100;2024-03-29T00:24:46;2.05;;;1.13;;
7823;SDS011;3957;48.61947800;9.05303100;2024-03-29T00:25:47;1.10;;;1.00;;
7823;SDS011;3957;48.61947800;9.05303100;2024-03-29T00:26:48;1.92;;;1.20;;
7823;SDS011;3957;48.61947800;9.05303100;2024-03-29T00:27:48;1.20;;;1.10;;
7823;SDS011;3957;48.61947800;9.05303100;2024-03-29T00:28:49;1.40;;;1.30;;
7823;SDS011;3957;48.61947800;9.05303100;2024-03-29T00:29:49;1.20;;;1.10;;
7823;SDS011;3957;48.61947800;9.05303100;2024-03-29T00:30:53;2.03;;;1.45;;
7823;SDS011;3957;48.61947800;9.05303100;2024-03-29T00:31:53;1.90;;;1.23;;
7823;SDS011;3957;48.61947800;9.05303100;2024-03-29T00:32:54;1.90;;;1.40;;
7823;SDS011;3957;48.61947800;9.05303100;2024-03-29T00:33:54;2.03;;;1.30;;
7823;SDS011;3957;48.61947800;9.05303100;2024-03-29T00:34:55;1.30;;;1.20;;
7823;SDS011;3957;48.61947800;9.05303100;2024-03-29T00:35:58;1.92;;;1.38;;
7823;SDS011;3957;48.61947800;9.05303100;2024-03-29T00:36:58;1.13;;;1.10;;
7823;SDS011;3957;48.61947800;9.05303100;2024-03-29T00:37:59;1.00;;;1.00;;
7823;SDS011;3957;48.61947800;9.05303100;2024-03-29T00:38:59;1.95;;;1.20;;
7823;SDS011;3957;48.61947800;9.05303100;2024-03-29T00:40:00;1.33;;;1.23;;
7823;SDS011;3957;48.61947800;9.05303100;2024-03-29T00:41:01;1.60;;;1.00;;
7823;SDS011;3957;48.61947800;9.05303100;2024-03-29T00:42:02;1.70;;;1.02;;
7823;SDS011;3957;48.61947800;9.05303100;2024-03-29T00:43:03;1.27;;;1.13;;
7823;SDS011;3957;48.61947800;9.05303100;2024-03-29T00:44:04;1.05;;;1.00;;
7823;SDS011;3957;48.61947800;9.05303100;2024-03-29T00:45:04;3.60;;;1.40;;
7823;SDS011;3957;48.61947800;9.05303100;2024-03-29T00:46:05;1.30;;;1.20;;
7823;SDS011;3957;48.61947800;9.05303100;2024-03-29T00:47:06;1.13;;;1.03;;
7823;SDS011;3957;48.61947800;9.05303100;2024-03-29T00:48:06;1.43;;;1.33;;
7823;SDS011;3957;48.61947800;9.05303100;2024-03-29T00:49:07;1.80;;;1.02;;
7823;SDS011;3957;48.61947800;9.05303100;2024-03-29T00:50:08;1.15;;;1.00;;
7823;SDS011;3957;48.61947800;9.05303100;2024-03-29T00:51:09;1.38;;;1.20;;
7823;SDS011;3957;48.61947800;9.05303100;2024-03-29T00:52:10;1.40;;;1.30;;
7823;SDS011;3957;48.61947800;9.05303100;2024-03-29T00:53:11;4.53;;;1.25;;
7823;SDS011;3957;48.61947800;9.05303100;2024-03-29T00:54:11;3.00;;;1.30;;
7823;SDS011;3957;48.61947800;9.05303100;2024-03-29T00:55:12;0.97;;;0.90;;
7823;SDS011;3957;48.61947800;9.05303100;2024-03-29T00:56:12;2.20;;;1.23;;
7823;SDS011;3957;48.61947800;9.05303100;2024-03-29T00:57:15;1.38;;;1.27;;
7823;SDS011;3957;48.61947800;9.05303100;2024-03-29T00:58:17;3.00;;;1.40;;
7823;SDS011;3957;48.61947800;9.05303100;2024-03-29T00:59:17;2.10;;;1.20;;
7823;SDS011;3957;48.61947800;9.05303100;2024-03-29T01:00:19;2.10;;;1.40;;
7823;SDS011;3957;48.61947800;9.05303100;2024-03-29T01:01:19;2.30;;;1.30;;
7823;SDS011;3957;48.61947800;9.05303100;2024-03-29T01:02:20;2.40;;;1.20;;
7823;SDS011;3957;48.61947800;9.05303100;2024-03-29T01:03:20;1.60;;;1.00;;
7823;SDS011;3957;48.61947800;9.05303100;2024-03-29T01:04:21;1.67;;;1.37;;
7823;SDS011;3957;48.61947800;9.05303100;2024-03-29T01:05:21;1.45;;;1.35;;
7823;SDS011;3957;48.61947800;9.05303100;2024-03-29T01:06:22;1.50;;;1.20;;
7823;SDS011;3957;48.61947800;9.05303100;2024-03-29T01:07:23;1.60;;;1.20;;
7823;SDS011;3957;48.61947800;9.05303100;2024-03-29T01:08:23;1.90;;;1.30;;
7823;SDS011;3957;48.61947800;9.05303100;2024-03-29T01:09:24;1.13;;;1.13;;
7823;SDS011;3957;48.61947800;9.05303100;2024-03-29T01:10:24;1.93;;;1.10;;
7823;SDS011;3957;48.61947800;9.05303100;2024-03-29T01:11:25;1.98;;;1.30;;
7823;SDS011;3957;48.61947800;9.05303100;2024-03-29T01:12:25;2.80;;;1.20;;
7823;SDS011;3957;48.61947800;9.05303100;2024-03-29T01:13:26;1.27;;;1.10;;
7823;SDS011;3957;48.61947800;9.05303100;2024-03-29T01:14:27;1.45;;;1.35;;
7823;SDS011;3957;48.61947800;9.05303100;2024-03-29T01:15:27;2.73;;;1.10;;
7823;SDS011;3957;48.61947800;9.05303100;2024-03-29T01:16:28;1.50;;;1.10;;
7823;SDS011;3957;48.61947800;9.05303100;2024-03-29T01:17:28;3.08;;;1.38;;
7823;SDS011;3957;48.61947800;9.05303100;2024-03-29T01:18:29;1.48;;;1.35;;
7823;SDS011;3957;48.61947800;9.05303100;2024-03-29T01:19:30;1.03;;;0.90;;
7823;SDS011;3957;48.61947800;9.05303100;2024-03-29T01:20:31;0.80;;;0.73;;
7823;SDS011;3957;48.61947800;9.05303100;2024-03-29T01:21:31;1.27;;;0.98;;
7823;SDS011;3957;48.61947800;9.05303100;2024-03-29T01:22:32;1.20;;;1.10;;
7823;SDS011;3957;48.61947800;9.05303100;2024-03-29T01:23:32;1.37;;;1.00;;
7823;SDS011;3957;48.61947800;9.05303100;2024-03-29T01:24:33;1.10;;;1.00;;
7823;SDS011;3957;48.61947800;9.05303100;2024-03-29T01:25:34;1.40;;;1.30;;
7823;SDS011;3957;48.61947800;9.05303100;2024-03-29T01:26:35;1.00;;;1.00;;
7823;SDS011;3957;48.61947800;9.05303100;2024-03-29T01:27:35;1.07;;;0.90;;
7823;SDS011;3957;48.61947800;9.05303100;2024-03-29T01:28:36;1.00;;;1.00;;
7823;SDS011;3957;48.61947800;9.05303100;2024-03-29T01:29:37;3.80;;;1.00;;
7823;SDS011;3957;48.61947800;9.05303100;2024-03-29T01:30:38;1.48;;;1.23;;
7823;SDS011;3957;48.61947800;9.05303100;2024-03-29T01:31:39;2.33;;;1.23;;
7823;SDS011;3957;48.61947800;9.05303100;2024-03-29T01:32:39;1.55;;;0.90;;
7823;SDS011;3957;48.61947800;9.05303100;2024-03-29T01:33:40;1.30;;;1.20;;
7823;SDS011;3957;48.61947800;9.05303100;2024-03-29T01:34:41;1.10;;;1.10;;
7823;SDS011;3957;48.61947800;9.05303100;2024-03-29T01:35:41;1.60;;;0.97;;
7823;SDS011;3957;48.61947800;9.05303100;2024-03-29T01:36:42;1.37;;;1.27;;
7823;SDS011;3957;48.61947800;9.05303100;2024-03-29T01:37:43;0.90;;;0.90;;
7823;SDS011;3957;48.61947800;9.05303100;2024-03-29T01:38:44;1.10;;;0.90;;
7823;SDS011;3957;48.61947800;9.05303100;2024-03-29T01:39:48;1.25;;;1.15;;
7823;SDS011;3957;48.61947800;9.05303100;2024-03-29T01:40:49;2.40;;;1.17;;
7823;SDS011;3957;48.61947800;9.05303100;2024-03-29T01:41:50;0.97;;;0.90;;
7823;SDS011;3957;48.61947800;9.05303100;2024-03-29T01:42:53;1.10;;;1.05;;
7823;SDS011;3957;48.61947800;9.05303100;2024-03-29T01:43:54;1.38;;;1.27;;
7823;SDS011;3957;48.61947800;9.05303100;2024-03-29T01:44:55;0.73;;;0.73;;
7823;SDS011;3957;48.61947800;9.05303100;2024-03-29T01:45:56;1.20;;;1.10;;
7823;SDS011;3957;48.61947800;9.05303100;2024-03-29T01:46:57;0.90;;;0.90;;
7823;SDS011;3957;48.61947800;9.05303100;2024-03-29T01:47:57;0.93;;;0.90;;
7823;SDS011;3957;48.61947800;9.05303100;2024-03-29T01:48:58;2.17;;;1.17;;
7823;SDS011;3957;48.61947800;9.05303100;2024-03-29T01:49:59;1.13;;;0.90;;
7823;SDS011;3957;48.61947800;9.05303100;2024-03-29T01:51:00;2.63;;;1.02;;
7823;SDS011;3957;48.61947800;9.05303100;2024-03-29T01:52:01;1.40;;;1.10;;
7823;SDS011;3957;48.61947800;9.05303100;2024-03-29T01:53:05;1.42;;;1.17;;
7823;SDS011;3957;48.61947800;9.05303100;2024-03-29T01:54:08;1.35;;;1.20;;
7823;SDS011;3957;48.61947800;9.05303100;2024-03-29T01:55:11;1.10;;;1.00;;
7823;SDS011;3957;48.61947800;9.05303100;2024-03-29T01:56:12;1.05;;;0.95;;
7823;SDS011;3957;48.61947800;9.05303100;2024-03-29T01:57:15;1.10;;;1.10;;
7823;SDS011;3957;48.61947800;9.05303100;2024-03-29T01:58:16;0.90;;;0.90;;
7823;SDS011;3957;48.61947800;9.05303100;2024-03-29T01:59:18;1.30;;;0.90;;
7823;SDS011;3957;48.61947800;9.05303100;2024-03-29T02:00:19;1.20;;;1.10;;
7823;SDS011;3957;48.61947800;9.05303100;2024-03-29T02:01:20;1.25;;;1.10;;
7823;SDS011;3957;48.61947800;9.05303100;2024-03-29T02:02:22;1.08;;;0.90;;
7823;SDS011;3957;48.61947800;9.05303100;2024-03-29T02:03:23;1.38;;;1.10;;
7823;SDS011;3957;48.61947800;9.05303100;2024-03-29T02:04:23;0.90;;;0.90;;
7823;SDS011;3957;48.61947800;9.05303100;2024-03-29T02:05:24;1.63;;;1.10;;
7823;SDS011;3957;48.61947800;9.05303100;2024-03-29T02:06:25;0.90;;;0.90;;
7823;SDS011;3957;48.61947800;9.05303100;2024-03-29T02:07:25;1.23;;;1.08;;
7823;SDS011;3957;48.61947800;9.05303100;2024-03-29T02:08:26;1.30;;;1.20;;
7823;SDS011;3957;48.61947800;9.05303100;2024-03-29T02:09:28;1.65;;;0.90;;
7823;SDS011;3957;48.61947800;9.05303100;2024-03-29T02:10:29;1.60;;;1.00;;
7823;SDS011;3957;48.61947800;9.05303100;2024-03-29T02:11:30;1.83;;;1.17;;
7823;SDS011;3957;48.61947800;9.05303100;2024-03-29T02:12:30;1.25;;;1.17;;
7823;SDS011;3957;48.61947800;9.05303100;2024-03-29T02:13:31;1.00;;;0.95;;
7823;SDS011;3957;48.61947800;9.05303100;2024-03-29T02:14:32;1.20;;;1.10;;
7823;SDS011;3957;48.61947800;9.05303100;2024-03-29T02:15:32;1.35;;;1.13;;
7823;SDS011;3957;48.61947800;9.05303100;2024-03-29T02:16:33;2.60;;;1.10;;
7823;SDS011;3957;48.61947800;9.05303100;2024-03-29T02:17:34;1.80;;;1.20;;
7823;SDS011;3957;48.61947800;9.05303100;2024-03-29T02:18:34;1.20;;;0.90;;
7823;SDS011;3957;48.61947800;9.05303100;2024-03-29T02:19:35;1.10;;;1.00;;
7823;SDS011;3957;48.61947800;9.05303100;2024-03-29T02:20:36;0.85;;;0.85;;
7823;SDS011;3957;48.61947800;9.05303100;2024-03-29T02:21:41;0.80;;;0.80;;
7823;SDS011;3957;48.61947800;9.05303100;2024-03-29T02:22:47;1.20;;;1.10;;
7823;SDS011;3957;48.61947800;9.05303100;2024-03-29T02:24:04;1.60;;;0.85;;
7823;SDS011;3957;48.61947800;9.05303100;2024-03-29T02:25:06;1.20;;;1.13;;
7823;SDS011;3957;48.61947800;9.05303100;2024-03-29T02:26:07;1.63;;;1.00;;
7823;SDS011;3957;48.61947800;9.05303100;2024-03-29T02:27:08;2.03;;;1.07;;
7823;SDS011;3957;48.61947800;9.05303100;2024-03-29T02:28:09;1.10;;;1.00;;
7823;SDS011;3957;48.61947800;9.05303100;2024-03-29T02:29:10;0.98;;;0.98;;
7823;SDS011;3957;48.61947800;9.05303100;2024-03-29T02:30:16;1.20;;;1.20;;
7823;SDS011;3957;48.61947800;9.05303100;2024-03-29T02:31:19;1.63;;;1.10;;
7823;SDS011;3957;48.61947800;9.05303100;2024-03-29T02:32:20;1.00;;;0.90;;
7823;SDS011;3957;48.61947800;9.05303100;2024-03-29T02:33:21;1.03;;;1.03;;
7823;SDS011;3957;48.61947800;9.05303100;2024-03-29T02:34:21;1.17;;;1.08;;
7823;SDS011;3957;48.61947800;9.05303100;2024-03-29T02:35:23;1.10;;;0.80;;
7823;SDS011;3957;48.61947800;9.05303100;2024-03-29T02:36:24;1.02;;;1.02;;
7823;SDS011;3957;48.61947800;9.05303100;2024-03-29T02:37:24;1.00;;;1.00;;
7823;SDS011;3957;48.61947800;9.05303100;2024-03-29T02:38:25;1.20;;;0.85;;
7823;SDS011;3957;48.61947800;9.05303100;2024-03-29T02:39:25;1.60;;;1.23;;
7823;SDS011;3957;48.61947800;9.05303100;2024-03-29T02:40:26;1.00;;;1.00;;
7823;SDS011;3957;48.61947800;9.05303100;2024-03-29T02:41:27;0.93;;;0.90;;
7823;SDS011;3957;48.61947800;9.05303100;2024-03-29T02:42:30;1.20;;;1.10;;
7823;SDS011;3957;48.61947800;9.05303100;2024-03-29T02:43:31;1.10;;;0.90;;
7823;SDS011;3957;48.61947800;9.05303100;2024-03-29T02:44:31;1.15;;;1.05;;
7823;SDS011;3957;48.61947800;9.05303100;2024-03-29T02:45:32;0.90;;;0.90;;
7823;SDS011;3957;48.61947800;9.05303100;2024-03-29T02:46:33;1.33;;;1.10;;
7823;SDS011;3957;48.61947800;9.05303100;2024-03-29T02:47:33;1.38;;;1.27;;
7823;SDS011;3957;48.61947800;9.05303100;2024-03-29T02:48:34;1.30;;;0.80;;
7823;SDS011;3957;48.61947800;9.05303100;2024-03-29T02:49:35;1.17;;;1.10;;
7823;SDS011;3957;48.61947800;9.05303100;2024-03-29T02:50:35;1.98;;;1.00;;
7823;SDS011;3957;48.61947800;9.05303100;2024-03-29T02:51:36;1.00;;;0.93;;
7823;SDS011;3957;48.61947800;9.05303100;2024-03-29T02:52:36;1.30;;;1.20;;
7823;SDS011;3957;48.61947800;9.05303100;2024-03-29T02:53:37;0.90;;;0.90;;
7823;SDS011;3957;48.61947800;9.05303100;2024-03-29T02:54:39;0.90;;;0.90;;
7823;SDS011;3957;48.61947800;9.05303100;2024-03-29T02:55:43;1.20;;;1.10;;
7823;SDS011;3957;48.61947800;9.05303100;2024-03-29T02:56:43;1.05;;;1.05;;
7823;SDS011;3957;48.61947800;9.05303100;2024-03-29T02:57:44;1.23;;;1.00;;
7823;SDS011;3957;48.61947800;9.05303100;2024-03-29T02:58:45;1.20;;;1.10;;
7823;SDS011;3957;48.61947800;9.05303100;2024-03-29T02:59:45;1.00;;;1.00;;
7823;SDS011;3957;48.61947800;9.05303100;2024-03-29T03:00:46;0.87;;;0.87;;
7823;SDS011;3957;48.61947800;9.05303100;2024-03-29T03:01:46;1.35;;;1.10;;
7823;SDS011;3957;48.61947800;9.05303100;2024-03-29T03:02:47;1.20;;;1.10;;
7823;SDS011;3957;48.61947800;9.05303100;2024-03-29T03:03:47;1.07;;;1.07;;
7823;SDS011;3957;48.61947800;9.05303100;2024-03-29T03:04:48;1.50;;;0.90;;
7823;SDS011;3957;48.61947800;9.05303100;2024-03-29T03:05:49;2.35;;;1.00;;
7823;SDS011;3957;48.61947800;9.05303100;2024-03-29T03:06:50;0.98;;;0.98;;
7823;SDS011;3957;48.61947800;9.05303100;2024-03-29T03:07:50;1.87;;;1.40;;
7823;SDS011;3957;48.61947800;9.05303100;2024-03-29T03:09:09;1.80;;;1.27;;
7823;SDS011;3957;48.61947800;9.05303100;2024-03-29T03:10:28;2.50;;;1.40;;
7823;SDS011;3957;48.61947800;9.05303100;2024-03-29T03:11:47;1.90;;;1.50;;
7823;SDS011;3957;48.61947800;9.05303100;2024-03-29T03:12:48;1.77;;;1.67;;
7823;SDS011;3957;48.61947800;9.05303100;2024-03-29T03:13:48;2.50;;;1.37;;
7823;SDS011;3957;48.61947800;9.05303100;2024-03-29T03:14:49;1.10;;;1.00;;
7823;SDS011;3957;48.61947800;9.05303100;2024-03-29T03:15:50;2.10;;;1.30;;
7823;SDS011;3957;48.61947800;9.05303100;2024-03-29T03:16:50;1.85;;;1.17;;
7823;SDS011;3957;48.61947800;9.05303100;2024-03-29T03:17:51;2.00;;;1.10;;
7823;SDS011;3957;48.61947800;9.05303100;2024-03-29T03:18:51;1.20;;;1.10;;
7823;SDS011;3957;48.61947800;9.05303100;2024-03-29T03:19:52;2.10;;;1.30;;
7823;SDS011;3957;48.61947800;9.05303100;2024-03-29T03:20:53;1.40;;;0.80;;
7823;SDS011;3957;48.61947800;9.05303100;2024-03-29T03:21:55;0.98;;;0.90;;
7823;SDS011;3957;48.61947800;9.05303100;2024-03-29T03:22:55;1.03;;;0.97;;
7823;SDS011;3957;48.61947800;9.05303100;2024-03-29T03:23:57;2.80;;;0.80;;
7823;SDS011;3957;48.61947800;9.05303100;2024-03-29T03:24:57;1.57;;;1.17;;
7823;SDS011;3957;48.61947800;9.05303100;2024-03-29T03:26:01;2.80;;;1.40;;
7823;SDS011;3957;48.61947800;9.05303100;2024-03-29T03:27:05;2.17;;;1.40;;
7823;SDS011;3957;48.61947800;9.05303100;2024-03-29T03:28:06;3.37;;;1.40;;
7823;SDS011;3957;48.61947800;9.05303100;2024-03-29T03:29:06;3.13;;;1.40;;
7823;SDS011;3957;48.61947800;9.05303100;2024-03-29T03:30:08;1.90;;;1.25;;
7823;SDS011;3957;48.61947800;9.05303100;2024-03-29T03:31:09;2.28;;;1.30;;
7823;SDS011;3957;48.61947800;9.05303100;2024-03-29T03:32:09;1.52;;;1.08;;
7823;SDS011;3957;48.61947800;9.05303100;2024-03-29T03:33:10;2.20;;;1.40;;
7823;SDS011;3957;48.61947800;9.05303100;2024-03-29T03:34:10;1.73;;;1.20;;
7823;SDS011;3957;48.61947800;9.05303100;2024-03-29T03:35:11;0.90;;;0.90;;
7823;SDS011;3957;48.61947800;9.05303100;2024-03-29T03:36:12;1.50;;;1.40;;
7823;SDS011;3957;48.61947800;9.05303100;2024-03-29T03:37:12;1.30;;;1.00;;
7823;SDS011;3957;48.61947800;9.05303100;2024-03-29T03:38:13;1.90;;;1.00;;
7823;SDS011;3957;48.61947800;9.05303100;2024-03-29T03:39:14;2.73;;;1.30;;
7823;SDS011;3957;48.61947800;9.05303100;2024-03-29T03:40:14;1.65;;;1.10;;
7823;SDS011;3957;48.61947800;9.05303100;2024-03-29T03:41:15;1.45;;;1.00;;
7823;SDS011;3957;48.61947800;9.05303100;2024-03-29T03:42:16;1.30;;;1.20;;
7823;SDS011;3957;48.61947800;9.05303100;2024-03-29T03:43:16;2.10;;;1.30;;
7823;SDS011;3957;48.61947800;9.05303100;2024-03-29T03:44:17;2.65;;;1.20;;
7823;SDS011;3957;48.61947800;9.05303100;2024-03-29T03:45:18;1.13;;;0.93;;
7823;SDS011;3957;48.61947800;9.05303100;2024-03-29T03:46:18;3.40;;;1.20;;
7823;SDS011;3957;48.61947800;9.05303100;2024-03-29T03:47:19;1.30;;;1.20;;
7823;SDS011;3957;48.61947800;9.05303100;2024-03-29T03:48:20;5.00;;;2.80;;
7823;SDS011;3957;48.61947800;9.05303100;2024-03-29T03:49:21;5.47;;;3.03;;
7823;SDS011;3957;48.61947800;9.05303100;2024-03-29T03:50:21;3.55;;;2.28;;
7823;SDS011;3957;48.61947800;9.05303100;2024-03-29T03:51:22;4.07;;;3.17;;
7823;SDS011;3957;48.61947800;9.05303100;2024-03-29T03:52:22;4.57;;;2.50;;
7823;SDS011;3957;48.61947800;9.05303100;2024-03-29T03:53:23;3.25;;;2.42;;
7823;SDS011;3957;48.61947800;9.05303100;2024-03-29T03:54:24;3.23;;;2.23;;
7823;SDS011;3957;48.61947800;9.05303100;2024-03-29T03:55:24;3.83;;;1.97;;
7823;SDS011;3957;48.61947800;9.05303100;2024-03-29T03:56:25;2.00;;;1.52;;
7823;SDS011;3957;48.61947800;9.05303100;2024-03-29T03:57:25;1.60;;;1.50;;
7823;SDS011;3957;48.61947800;9.05303100;2024-03-29T03:58:26;2.65;;;1.55;;
7823;SDS011;3957;48.61947800;9.05303100;2024-03-29T03:59:26;3.17;;;2.10;;
7823;SDS011;3957;48.61947800;9.05303100;2024-03-29T04:00:27;3.60;;;1.83;;
7823;SDS011;3957;48.61947800;9.05303100;2024-03-29T04:01:28;2.28;;;1.60;;
7823;SDS011;3957;48.61947800;9.05303100;2024-03-29T04:02:28;1.83;;;1.60;;
7823;SDS011;3957;48.61947800;9.05303100;2024-03-29T04:03:29;2.60;;;1.53;;
7823;SDS011;3957;48.61947800;9.05303100;2024-03-29T04:04:30;1.88;;;1.50;;
7823;SDS011;3957;48.61947800;9.05303100;2024-03-29T04:05:30;2.90;;;1.90;;
7823;SDS011;3957;48.61947800;9.05303100;2024-03-29T04:06:32;2.38;;;1.50;;
7823;SDS011;3957;48.61947800;9.05303100;2024-03-29T04:07:32;1.63;;;1.30;;
7823;SDS011;3957;48.61947800;9.05303100;2024-03-29T04:08:33;2.10;;;1.83;;
7823;SDS011;3957;48.61947800;9.05303100;2024-03-29T04:09:34;1.50;;;1.40;;
7823;SDS011;3957;48.61947800;9.05303100;2024-03-29T04:10:37;1.67;;;1.30;;
7823;SDS011;3957;48.61947800;9.05303100;2024-03-29T04:11:38;2.17;;;1.30;;
7823;SDS011;3957;48.61947800;9.05303100;2024-03-29T04:12:39;1.55;;;1.10;;
7823;SDS011;3957;48.61947800;9.05303100;2024-03-29T04:13:41;1.50;;;1.40;;
7823;SDS011;3957;48.61947800;9.05303100;2024-03-29T04:14:43;1.63;;;1.30;;
7823;SDS011;3957;48.61947800;9.05303100;2024-03-29T04:15:43;2.20;;;1.63;;
7823;SDS011;3957;48.61947800;9.05303100;2024-03-29T04:16:44;2.20;;;1.45;;
7823;SDS011;3957;48.61947800;9.05303100;2024-03-29T04:17:46;1.80;;;1.30;;
7823;SDS011;3957;48.61947800;9.05303100;2024-03-29T04:18:47;2.37;;;1.40;;
7823;SDS011;3957;48.61947800;9.05303100;2024-03-29T04:19:47;2.03;;;1.50;;
7823;SDS011;3957;48.61947800;9.05303100;2024-03-29T04:20:55;2.50;;;1.53;;
7823;SDS011;3957;48.61947800;9.05303100;2024-03-29T04:21:56;2.03;;;1.33;;
7823;SDS011;3957;48.61947800;9.05303100;2024-03-29T04:22:57;1.40;;;1.30;;
7823;SDS011;3957;48.61947800;9.05303100;2024-03-29T04:23:57;1.50;;;1.20;;
7823;SDS011;3957;48.61947800;9.05303100;2024-03-29T04:24:58;2.08;;;1.55;;
7823;SDS011;3957;48.61947800;9.05303100;2024-03-29T04:25:59;1.73;;;1.20;;
7823;SDS011;3957;48.61947800;9.05303100;2024-03-29T04:27:00;1.55;;;1.30;;
7823;SDS011;3957;48.61947800;9.05303100;2024-03-29T04:28:00;2.00;;;1.38;;
7823;SDS011;3957;48.61947800;9.05303100;2024-03-29T04:29:01;1.40;;;1.30;;
7823;SDS011;3957;48.61947800;9.05303100;2024-03-29T04:30:01;0.80;;;0.80;;
7823;SDS011;3957;48.61947800;9.05303100;2024-03-29T04:31:03;1.30;;;1.20;;
7823;SDS011;3957;48.61947800;9.05303100;2024-03-29T04:32:04;1.10;;;1.10;;
7823;SDS011;3957;48.61947800;9.05303100;2024-03-29T04:33:05;1.05;;;0.95;;
7823;SDS011;3957;48.61947800;9.05303100;2024-03-29T04:34:05;1.03;;;1.00;;
7823;SDS011;3957;48.61947800;9.05303100;2024-03-29T04:35:06;1.88;;;1.10;;
7823;SDS011;3957;48.61947800;9.05303100;2024-03-29T04:36:07;1.05;;;0.88;;
7823;SDS011;3957;48.61947800;9.05303100;2024-03-29T04:37:07;1.17;;;1.10;;
7823;SDS011;3957;48.61947800;9.05303100;2024-03-29T04:38:08;1.17;;;1.00;;
7823;SDS011;3957;48.61947800;9.05303100;2024-03-29T04:39:09;0.83;;;0.83;;
7823;SDS011;3957;48.61947800;9.05303100;2024-03-29T04:40:09;1.38;;;1.10;;
7823;SDS011;3957;48.61947800;9.05303100;2024-03-29T04:41:10;0.90;;;0.90;;
7823;SDS011;3957;48.61947800;9.05303100;2024-03-29T04:42:11;0.80;;;0.80;;
7823;SDS011;3957;48.61947800;9.05303100;2024-03-29T04:43:12;1.60;;;1.10;;
7823;SDS011;3957;48.61947800;9.05303100;2024-03-29T04:44:13;0.97;;;0.87;;
7823;SDS011;3957;48.61947800;9.05303100;2024-03-29T04:45:23;0.93;;;0.93;;
7823;SDS011;3957;48.61947800;9.05303100;2024-03-29T04:46:23;1.20;;;1.00;;
7823;SDS011;3957;48.61947800;9.05303100;2024-03-29T04:47:24;1.20;;;0.95;;
7823;SDS011;3957;48.61947800;9.05303100;2024-03-29T04:48:24;1.23;;;1.20;;
7823;SDS011;3957;48.61947800;9.05303100;2024-03-29T04:49:25;1.20;;;1.10;;
7823;SDS011;3957;48.61947800;9.05303100;2024-03-29T04:50:30;1.40;;;1.13;;
7823;SDS011;3957;48.61947800;9.05303100;2024-03-29T04:51:31;3.33;;;1.93;;
7823;SDS011;3957;48.61947800;9.05303100;2024-03-29T04:52:32;4.87;;;2.90;;
7823;SDS011;3957;48.61947800;9.05303100;2024-03-29T04:53:32;3.33;;;2.50;;
7823;SDS011;3957;48.61947800;9.05303100;2024-03-29T04:54:33;3.17;;;2.13;;
7823;SDS011;3957;48.61947800;9.05303100;2024-03-29T04:55:34;2.70;;;1.90;;
7823;SDS011;3957;48.61947800;9.05303100;2024-03-29T04:56:35;2.03;;;1.60;;
7823;SDS011;3957;48.61947800;9.05303100;2024-03-29T04:57:36;2.13;;;1.85;;
7823;SDS011;3957;48.61947800;9.05303100;2024-03-29T04:58:37;3.25;;;2.13;;
7823;SDS011;3957;48.61947800;9.05303100;2024-03-29T04:59:37;3.00;;;2.00;;
7823;SDS011;3957;48.61947800;9.05303100;2024-03-29T05:00:38;1.70;;;1.60;;
7823;SDS011;3957;48.61947800;9.05303100;2024-03-29T05:01:38;2.07;;;1.43;;
7823;SDS011;3957;48.61947800;9.05303100;2024-03-29T05:02:39;1.93;;;1.70;;
7823;SDS011;3957;48.61947800;9.05303100;2024-03-29T05:03:40;1.50;;;1.30;;
7823;SDS011;3957;48.61947800;9.05303100;2024-03-29T05:04:40;1.23;;;1.13;;
7823;SDS011;3957;48.61947800;9.05303100;2024-03-29T05:05:41;2.40;;;1.60;;
7823;SDS011;3957;48.61947800;9.05303100;2024-03-29T05:06:41;1.50;;;1.40;;
7823;SDS011;3957;48.61947800;9.05303100;2024-03-29T05:07:42;1.93;;;1.33;;
7823;SDS011;3957;48.61947800;9.05303100;2024-03-29T05:08:42;1.50;;;1.40;;
7823;SDS011;3957;48.61947800;9.05303100;2024-03-29T05:09:43;1.50;;;1.27;;
7823;SDS011;3957;48.61947800;9.05303100;2024-03-29T05:10:44;1.80;;;1.50;;
7823;SDS011;3957;48.61947800;9.05303100;2024-03-29T05:11:45;1.73;;;1.40;;
7823;SDS011;3957;48.61947800;9.05303100;2024-03-29T05:12:47;1.30;;;1.20;;
7823;SDS011;3957;48.61947800;9.05303100;2024-03-29T05:13:47;2.50;;;1.67;;
7823;SDS011;3957;48.61947800;9.05303100;2024-03-29T05:14:48;2.05;;;1.65;;
7823;SDS011;3957;48.61947800;9.05303100;2024-03-29T05:15:49;1.83;;;1.50;;
7823;SDS011;3957;48.61947800;9.05303100;2024-03-29T05:16:50;1.40;;;1.30;;
7823;SDS011;3957;48.61947800;9.05303100;2024-03-29T05:17:51;2.40;;;1.30;;
7823;SDS011;3957;48.61947800;9.05303100;2024-03-29T05:18:53;1.70;;;1.60;;
7823;SDS011;3957;48.61947800;9.05303100;2024-03-29T05:19:54;2.00;;;1.65;;
7823;SDS011;3957;48.61947800;9.05303100;2024-03-29T05:20:54;1.88;;;1.42;;
7823;SDS011;3957;48.61947800;9.05303100;2024-03-29T05:21:55;1.88;;;1.77;;
7823;SDS011;3957;48.61947800;9.05303100;2024-03-29T05:22:57;3.07;;;1.80;;
7823;SDS011;3957;48.61947800;9.05303100;2024-03-29T05:23:58;2.35;;;1.40;;
7823;SDS011;3957;48.61947800;9.05303100;2024-03-29T05:24:59;3.75;;;1.80;;
7823;SDS011;3957;48.61947800;9.05303100;2024-03-29T05:25:59;1.80;;;1.40;;
7823;SDS011;3957;48.61947800;9.05303100;2024-03-29T05:27:00;1.60;;;1.35;;
7823;SDS011;3957;48.61947800;9.05303100;2024-03-29T05:28:00;2.07;;;1.70;;
7823;SDS011;3957;48.61947800;9.05303100;2024-03-29T05:29:02;2.03;;;1.52;;